createdAt,value
2018-03-14T00:02:04.371Z,1.90
2018-03-14T00:04:31.832Z,1.80
2018-03-14T00:06:59.277Z,1.70
2018-03-14T00:09:26.732Z,1.40
2018-03-14T00:11:54.202Z,1.60
2018-03-14T00:14:21.710Z,2.00
2018-03-14T00:16:49.942Z,1.83
2018-03-14T00:19:17.421Z,1.40
2018-03-14T00:21:44.860Z,1.80
2018-03-14T00:24:12.329Z,1.70
2018-03-14T00:26:39.782Z,1.70
2018-03-14T00:29:07.232Z,1.53
2018-03-14T00:31:34.685Z,2.07
2018-03-14T00:34:02.905Z,2.40
2018-03-14T00:36:30.355Z,1.60
2018-03-14T00:38:57.813Z,2.07
2018-03-14T00:41:25.285Z,2.33
2018-03-14T00:43:52.739Z,2.10
2018-03-14T00:46:20.188Z,1.80
2018-03-14T00:48:47.638Z,1.70
2018-03-14T00:51:15.097Z,1.70
2018-03-14T00:53:42.541Z,1.80
2018-03-14T00:56:10.009Z,2.60
2018-03-14T00:58:37.794Z,2.43
2018-03-14T01:01:06.013Z,1.80
2018-03-14T01:03:33.497Z,1.60
2018-03-14T01:06:00.958Z,1.70
2018-03-14T01:08:28.440Z,2.27
2018-03-14T01:10:55.890Z,1.83
2018-03-14T01:13:23.342Z,1.70
2018-03-14T01:15:50.802Z,1.90
2018-03-14T01:18:18.256Z,2.00
2018-03-14T01:20:46.594Z,2.17
2018-03-14T01:23:14.058Z,1.80
2018-03-14T01:25:45.083Z,1.80
2018-03-14T01:28:12.551Z,2.00
2018-03-14T01:30:40.017Z,1.90
2018-03-14T01:33:07.486Z,2.25
2018-03-14T01:35:34.933Z,5.93
2018-03-14T01:38:02.389Z,2.73
2018-03-14T01:40:29.848Z,3.53
2018-03-14T01:42:57.325Z,2.53
2018-03-14T01:45:26.290Z,2.13
2018-03-14T01:47:53.744Z,2.40
2018-03-14T01:50:21.200Z,2.00
2018-03-14T01:52:48.660Z,2.23
2018-03-14T01:55:16.105Z,2.27
2018-03-14T01:57:43.552Z,2.20
2018-03-14T02:00:10.999Z,2.17
2018-03-14T02:02:39.221Z,2.10
2018-03-14T02:05:06.678Z,3.07
2018-03-14T02:07:34.132Z,1.97
2018-03-14T02:10:01.581Z,1.70
2018-03-14T02:12:29.031Z,2.63
2018-03-14T02:14:56.492Z,2.20
2018-03-14T02:17:23.941Z,2.37
2018-03-14T02:19:51.404Z,3.00
2018-03-14T02:22:18.852Z,2.67
2018-03-14T02:24:46.304Z,2.30
2018-03-14T02:27:13.752Z,2.50
2018-03-14T02:29:41.207Z,3.33
2018-03-14T02:32:08.662Z,3.40
2018-03-14T02:34:36.877Z,3.87
2018-03-14T02:37:04.327Z,4.50
2018-03-14T02:39:31.793Z,3.97
2018-03-14T02:41:59.239Z,3.73
2018-03-14T02:44:26.757Z,3.80
2018-03-14T02:46:54.997Z,2.93
2018-03-14T02:49:22.449Z,4.07
2018-03-14T02:51:49.887Z,4.37
2018-03-14T02:54:17.332Z,4.30
2018-03-14T02:56:44.781Z,6.67
2018-03-14T02:59:12.248Z,5.07
2018-03-14T03:01:39.692Z,5.50
2018-03-14T03:04:07.146Z,5.30
2018-03-14T03:06:35.352Z,5.70
2018-03-14T03:09:03.018Z,5.53
2018-03-14T03:11:30.504Z,5.90
2018-03-14T03:13:57.960Z,7.13
2018-03-14T03:16:25.425Z,7.60
2018-03-14T03:18:52.905Z,6.47
2018-03-14T03:21:21.129Z,8.70
2018-03-14T03:23:48.579Z,7.53
2018-03-14T03:26:16.025Z,7.27
2018-03-14T03:28:43.468Z,6.10
2018-03-14T03:31:11.238Z,6.20
2018-03-14T03:33:38.693Z,6.00
2018-03-14T03:36:06.151Z,7.63
2018-03-14T03:38:33.603Z,6.30
2018-03-14T03:41:01.055Z,6.40
2018-03-14T03:43:28.501Z,6.07
2018-03-14T03:45:56.719Z,8.10
2018-03-14T03:48:24.156Z,6.17
2018-03-14T03:50:51.600Z,6.93
2018-03-14T03:53:19.041Z,6.40
2018-03-14T03:55:47.260Z,6.30
2018-03-14T03:58:14.707Z,6.80
2018-03-14T04:00:42.215Z,6.97
2018-03-14T04:03:09.618Z,6.07
2018-03-14T04:05:37.106Z,6.77
2018-03-14T04:08:04.550Z,9.83
2018-03-14T04:10:32.006Z,10.27
2018-03-14T04:12:59.453Z,8.53
2018-03-14T04:15:26.901Z,6.53
2018-03-14T04:17:54.349Z,8.52
2018-03-14T04:20:21.805Z,6.63
2018-03-14T04:22:49.262Z,8.30
2018-03-14T04:25:16.717Z,7.47
2018-03-14T04:27:44.161Z,6.83
2018-03-14T04:30:12.363Z,8.90
2018-03-14T04:32:39.822Z,7.37
2018-03-14T04:35:07.293Z,10.37
2018-03-14T04:37:34.745Z,8.60
2018-03-14T04:40:02.293Z,8.40
2018-03-14T04:42:29.732Z,7.37
2018-03-14T04:44:57.185Z,8.47
2018-03-14T04:47:25.425Z,7.03
2018-03-14T04:49:53.633Z,8.53
2018-03-14T04:52:21.856Z,8.50
2018-03-14T04:54:49.310Z,10.13
2018-03-14T04:57:16.772Z,8.37
2018-03-14T04:59:44.212Z,7.80
2018-03-14T05:02:11.661Z,8.37
2018-03-14T05:04:39.153Z,10.30
2018-03-14T05:07:06.605Z,7.97
2018-03-14T05:09:34.049Z,8.20
2018-03-14T05:12:01.535Z,6.60
2018-03-14T05:14:28.984Z,13.27
2018-03-14T05:16:56.427Z,9.77
2018-03-14T05:19:23.882Z,6.17
2018-03-14T05:21:51.333Z,6.53
2018-03-14T05:24:18.792Z,6.93
2018-03-14T05:26:46.287Z,4.40
2018-03-14T05:29:13.701Z,5.80
2018-03-14T05:31:41.149Z,5.30
2018-03-14T05:34:08.605Z,4.70
2018-03-14T05:36:36.045Z,4.73
2018-03-14T05:39:03.497Z,5.60
2018-03-14T05:41:31.718Z,4.30
2018-03-14T05:43:59.177Z,7.50
2018-03-14T05:46:26.637Z,7.25
2018-03-14T05:48:54.091Z,9.23
2018-03-14T05:51:21.540Z,5.10
2018-03-14T05:53:48.988Z,4.68
2018-03-14T05:56:16.437Z,6.20
2018-03-14T05:58:43.908Z,5.83
2018-03-14T06:01:11.356Z,4.57
2018-03-14T06:03:38.820Z,6.27
2018-03-14T06:06:06.271Z,5.73
2018-03-14T06:08:33.720Z,6.10
2018-03-14T06:11:01.184Z,5.67
2018-03-14T06:13:28.640Z,8.57
2018-03-14T06:15:56.080Z,6.10
2018-03-14T06:18:23.549Z,6.13
2018-03-14T06:20:50.989Z,5.20
2018-03-14T06:23:18.437Z,5.10
2018-03-14T06:25:46.659Z,5.43
2018-03-14T06:28:14.093Z,7.20
2018-03-14T06:30:41.557Z,6.47
2018-03-14T06:33:08.998Z,6.70
2018-03-14T06:35:36.442Z,7.47
2018-03-14T06:38:04.655Z,6.18
2018-03-14T06:40:32.113Z,6.73
2018-03-14T06:43:00.320Z,6.43
2018-03-14T06:45:27.773Z,7.87
2018-03-14T06:47:55.999Z,5.50
2018-03-14T06:50:23.440Z,9.13
2018-03-14T06:52:51.647Z,7.80
2018-03-14T06:55:19.097Z,10.80
2018-03-14T06:57:46.541Z,6.03
2018-03-14T07:00:26.100Z,7.40
2018-03-14T07:03:06.595Z,7.77
2018-03-14T07:05:45.869Z,7.30
2018-03-14T07:08:14.080Z,6.97
2018-03-14T07:10:41.536Z,14.53
2018-03-14T07:13:08.982Z,7.90
2018-03-14T07:15:36.436Z,6.90
2018-03-14T07:18:03.940Z,7.45
2018-03-14T07:20:31.491Z,9.10
2018-03-14T07:22:58.943Z,12.03
2018-03-14T07:25:26.388Z,8.67
2018-03-14T07:27:53.835Z,11.03
2018-03-14T07:30:21.301Z,9.33
2018-03-14T07:32:48.749Z,9.37
2018-03-14T07:35:16.205Z,9.90
2018-03-14T07:37:43.665Z,9.27
2018-03-14T07:40:11.156Z,8.93
2018-03-14T07:42:38.704Z,9.60
2018-03-14T07:45:06.233Z,7.83
2018-03-14T07:47:33.675Z,7.83
2018-03-14T07:50:01.140Z,8.70
2018-03-14T07:52:28.597Z,7.70
2018-03-14T07:54:56.059Z,9.80
2018-03-14T07:57:23.520Z,8.67
2018-03-14T07:59:50.968Z,13.83
2018-03-14T08:02:18.429Z,16.97
2018-03-14T08:04:45.882Z,11.60
2018-03-14T08:07:13.344Z,15.67
2018-03-14T08:09:40.795Z,9.80
2018-03-14T08:12:09.592Z,8.93
2018-03-14T08:14:37.036Z,6.70
2018-03-14T08:17:04.503Z,10.03
2018-03-14T08:19:31.958Z,7.63
2018-03-14T08:21:59.456Z,10.40
2018-03-14T08:24:26.905Z,12.47
2018-03-14T08:26:54.368Z,15.90
2018-03-14T08:29:21.812Z,16.20
2018-03-14T08:31:49.300Z,14.13
2018-03-14T08:34:18.033Z,5.40
2018-03-14T08:36:45.504Z,6.67
2018-03-14T08:39:12.960Z,5.27
2018-03-14T08:41:40.439Z,10.80
2018-03-14T08:44:07.887Z,5.37
2018-03-14T08:46:35.340Z,8.40
2018-03-14T08:49:02.796Z,8.87
2018-03-14T08:51:30.236Z,6.73
2018-03-14T08:53:57.676Z,6.10
2018-03-14T08:56:25.196Z,5.90
2018-03-14T08:58:52.636Z,6.57
2018-03-14T09:01:20.084Z,10.13
2018-03-14T09:03:47.542Z,6.00
2018-03-14T09:06:14.984Z,6.60
2018-03-14T09:08:43.233Z,4.82
2018-03-14T09:11:11.450Z,5.37
2018-03-14T09:13:38.888Z,4.78
2018-03-14T09:16:06.345Z,5.40
2018-03-14T09:18:34.748Z,8.45
2018-03-14T09:21:02.212Z,4.13
2018-03-14T09:23:29.676Z,4.80
2018-03-14T09:25:57.129Z,19.43
2018-03-14T09:28:24.597Z,6.63
2018-03-14T09:30:52.049Z,4.77
2018-03-14T09:33:19.522Z,4.33
2018-03-14T09:35:46.976Z,5.07
2018-03-14T09:38:14.433Z,5.07
2018-03-14T09:40:42.808Z,3.43
2018-03-14T09:43:10.260Z,4.40
2018-03-14T09:45:39.221Z,3.70
2018-03-14T09:48:06.699Z,4.13
2018-03-14T09:50:34.140Z,3.40
2018-03-14T09:53:01.605Z,3.75
2018-03-14T09:55:29.049Z,7.73
2018-03-14T09:57:56.525Z,3.63
2018-03-14T10:00:23.972Z,6.30
2018-03-14T10:02:51.432Z,3.67
2018-03-14T10:05:18.901Z,4.20
2018-03-14T10:07:46.344Z,4.93
2018-03-14T10:10:13.801Z,3.93
2018-03-14T10:12:41.263Z,10.20
2018-03-14T10:15:08.737Z,14.15
2018-03-14T10:17:36.189Z,11.37
2018-03-14T10:20:03.647Z,4.77
2018-03-14T10:22:31.088Z,4.93
2018-03-14T10:24:58.555Z,20.40
2018-03-14T10:27:26.018Z,4.93
2018-03-14T10:29:53.472Z,4.23
2018-03-14T10:32:20.912Z,4.13
2018-03-14T10:34:48.375Z,5.53
2018-03-14T10:37:15.808Z,6.80
2018-03-14T10:39:43.307Z,6.20
2018-03-14T10:42:11.530Z,3.60
2018-03-14T10:44:39.312Z,6.17
2018-03-14T10:47:06.766Z,4.17
2018-03-14T10:49:34.209Z,4.00
2018-03-14T10:52:01.664Z,4.50
2018-03-14T10:54:29.109Z,19.23
2018-03-14T10:56:57.345Z,17.63
2018-03-14T10:59:24.800Z,21.98
2018-03-14T11:01:54.710Z,4.47
2018-03-14T11:04:22.172Z,5.30
2018-03-14T11:06:49.608Z,21.07
2018-03-14T11:09:17.084Z,5.70
2018-03-14T11:11:44.552Z,5.10
2018-03-14T11:14:11.989Z,6.00
2018-03-14T11:16:39.476Z,3.73
2018-03-14T11:19:07.759Z,14.03
2018-03-14T11:21:35.258Z,7.30
2018-03-14T11:24:03.452Z,7.77
2018-03-14T11:26:30.904Z,9.00
2018-03-14T11:28:58.346Z,5.60
2018-03-14T11:31:26.633Z,25.73
2018-03-14T11:33:54.069Z,6.00
2018-03-14T11:36:21.524Z,5.90
2018-03-14T11:38:49.004Z,7.47
2018-03-14T11:41:16.449Z,5.90
2018-03-14T11:43:43.921Z,6.90
2018-03-14T11:46:11.378Z,7.23
2018-03-14T11:48:38.866Z,14.60
2018-03-14T11:51:06.299Z,4.50
2018-03-14T11:53:35.595Z,4.65
2018-03-14T11:56:03.052Z,6.80
2018-03-14T11:58:30.496Z,6.07
2018-03-14T12:00:57.957Z,5.63
2018-03-14T12:03:25.404Z,6.33
2018-03-14T12:05:53.176Z,5.37
2018-03-14T12:08:20.612Z,7.93
2018-03-14T12:10:48.832Z,9.00
2018-03-14T12:13:16.274Z,6.87
2018-03-14T12:15:43.726Z,5.33
2018-03-14T12:18:11.192Z,5.10
2018-03-14T12:20:38.636Z,5.03
2018-03-14T12:23:06.085Z,13.70
2018-03-14T12:25:33.531Z,7.80
2018-03-14T12:28:01.009Z,4.68
2018-03-14T12:30:28.453Z,4.90
2018-03-14T12:32:59.129Z,5.73
2018-03-14T12:35:26.959Z,5.37
2018-03-14T12:37:54.424Z,5.83
2018-03-14T12:40:21.878Z,4.17
2018-03-14T12:42:49.332Z,4.93
2018-03-14T12:45:16.796Z,5.37
2018-03-14T12:47:44.247Z,7.83
2018-03-14T12:50:11.704Z,9.27
2018-03-14T12:52:39.164Z,8.67
2018-03-14T12:55:06.604Z,4.60
2018-03-14T12:57:34.062Z,8.73
2018-03-14T13:00:01.503Z,5.17
2018-03-14T13:02:29.774Z,6.73
2018-03-14T13:04:57.164Z,5.20
2018-03-14T13:07:24.620Z,6.93
2018-03-14T13:09:52.061Z,4.60
2018-03-14T13:12:19.507Z,4.40
2018-03-14T13:14:47.719Z,4.27
2018-03-14T13:17:15.199Z,4.43
2018-03-14T13:19:42.664Z,5.50
2018-03-14T13:22:10.116Z,3.93
2018-03-14T13:24:37.561Z,5.00
2018-03-14T13:27:05.009Z,6.53
2018-03-14T13:29:32.478Z,4.17
2018-03-14T13:31:59.921Z,7.37
2018-03-14T13:34:27.385Z,6.68
2018-03-14T13:36:54.836Z,5.03
2018-03-14T13:39:22.301Z,4.73
2018-03-14T13:41:49.770Z,9.57
2018-03-14T13:44:17.228Z,6.73
2018-03-14T13:46:44.670Z,4.10
2018-03-14T13:49:12.141Z,4.40
2018-03-14T13:51:39.589Z,10.40
2018-03-14T13:54:07.050Z,4.40
2018-03-14T13:56:34.494Z,5.60
2018-03-14T13:59:01.982Z,4.00
2018-03-14T14:01:29.399Z,6.80
2018-03-14T14:03:56.856Z,7.03
2018-03-14T14:06:25.024Z,5.10
2018-03-14T14:08:52.480Z,5.77
2018-03-14T14:11:19.943Z,4.70
2018-03-14T14:13:48.166Z,4.40
2018-03-14T14:16:15.613Z,4.57
2018-03-14T14:18:43.069Z,4.10
2018-03-14T14:21:10.536Z,4.07
2018-03-14T14:23:37.996Z,3.63
2018-03-14T14:26:05.436Z,3.60
2018-03-14T14:28:33.704Z,3.53
2018-03-14T14:31:01.151Z,7.93
2018-03-14T14:33:28.628Z,3.90
2018-03-14T14:35:56.094Z,5.30
2018-03-14T14:38:31.485Z,3.87
2018-03-14T14:40:58.941Z,6.63
2018-03-14T14:43:26.437Z,4.60
2018-03-14T14:45:53.903Z,7.00
2018-03-14T14:48:21.358Z,4.30
2018-03-14T14:50:48.833Z,4.60
2018-03-14T14:53:16.283Z,4.50
2018-03-14T14:55:43.736Z,9.13
2018-03-14T14:58:11.185Z,9.97
2018-03-14T15:00:38.646Z,8.83
2018-03-14T15:03:06.089Z,6.70
2018-03-14T15:05:33.565Z,12.20
2018-03-14T15:08:01.020Z,4.83
2018-03-14T15:10:28.476Z,5.90
2018-03-14T15:12:55.931Z,5.83
2018-03-14T15:15:23.535Z,7.00
2018-03-14T15:17:50.979Z,12.00
2018-03-14T15:20:18.449Z,6.53
2018-03-14T15:22:46.669Z,8.17
2018-03-14T15:25:14.145Z,7.00
2018-03-14T15:27:41.592Z,9.10
2018-03-14T15:30:09.217Z,7.40
2018-03-14T15:32:36.498Z,7.10
2018-03-14T15:35:03.952Z,7.00
2018-03-14T15:37:31.421Z,10.93
2018-03-14T15:39:58.884Z,7.20
2018-03-14T15:42:26.328Z,8.10
2018-03-14T15:44:53.777Z,9.17
2018-03-14T15:47:21.245Z,6.27
2018-03-14T15:49:48.700Z,7.57
2018-03-14T15:52:16.181Z,8.03
2018-03-14T15:54:43.616Z,6.77
2018-03-14T15:57:11.073Z,8.60
2018-03-14T15:59:38.533Z,12.17
2018-03-14T16:02:05.980Z,8.37
2018-03-14T16:04:33.425Z,13.60
2018-03-14T16:07:00.874Z,6.53
2018-03-14T16:09:28.337Z,8.87
2018-03-14T16:11:55.793Z,6.27
2018-03-14T16:14:23.231Z,7.60
2018-03-14T16:16:50.677Z,9.27
2018-03-14T16:19:18.975Z,7.40
2018-03-14T16:21:46.368Z,9.90
2018-03-14T16:24:13.816Z,6.55
2018-03-14T16:26:41.289Z,6.27
2018-03-14T16:29:08.732Z,7.53
2018-03-14T16:31:36.185Z,8.27
2018-03-14T16:34:03.637Z,9.30
2018-03-14T16:36:31.107Z,12.47
2018-03-14T16:38:58.561Z,11.63
2018-03-14T16:41:26.018Z,7.73
2018-03-14T16:43:53.457Z,9.77
2018-03-14T16:46:20.912Z,10.07
2018-03-14T16:48:48.370Z,8.53
2018-03-14T16:51:15.842Z,6.63
2018-03-14T16:53:43.279Z,7.70
2018-03-14T16:56:10.716Z,8.70
2018-03-14T16:58:38.180Z,10.13
2018-03-14T17:01:05.632Z,10.50
2018-03-14T17:03:33.092Z,12.07
2018-03-14T17:06:01.289Z,8.73
2018-03-14T17:08:28.741Z,12.10
2018-03-14T17:10:56.201Z,9.20
2018-03-14T17:13:23.657Z,8.73
2018-03-14T17:15:51.090Z,10.00
2018-03-14T17:18:18.540Z,9.53
2018-03-14T17:20:46.756Z,9.60
2018-03-14T17:23:14.232Z,8.80
2018-03-14T17:25:41.684Z,10.23
2018-03-14T17:28:09.144Z,11.77
2018-03-14T17:30:36.638Z,13.03
2018-03-14T17:33:04.064Z,12.30
2018-03-14T17:35:31.512Z,11.80
2018-03-14T17:37:58.975Z,11.07
2018-03-14T17:40:26.412Z,12.53
2018-03-14T17:42:53.860Z,8.17
2018-03-14T17:45:21.303Z,15.67
2018-03-14T17:47:48.765Z,13.43
2018-03-14T17:50:16.221Z,10.93
2018-03-14T17:52:43.665Z,11.17
2018-03-14T17:55:11.959Z,14.37
2018-03-14T17:57:39.400Z,10.13
2018-03-14T18:00:06.869Z,12.90
2018-03-14T18:02:34.313Z,15.60
2018-03-14T18:05:01.763Z,16.53
2018-03-14T18:07:29.969Z,12.40
2018-03-14T18:09:57.436Z,13.40
2018-03-14T18:12:24.890Z,12.90
2018-03-14T18:14:52.363Z,12.27
2018-03-14T18:17:19.812Z,17.97
2018-03-14T18:19:47.290Z,23.50
2018-03-14T18:22:14.734Z,14.93
2018-03-14T18:24:42.199Z,12.27
2018-03-14T18:27:09.645Z,14.03
2018-03-14T18:29:37.097Z,16.20
2018-03-14T18:32:04.553Z,15.33
2018-03-14T18:34:32.032Z,26.17
2018-03-14T18:36:59.589Z,17.40
2018-03-14T18:39:27.045Z,15.73
2018-03-14T18:41:54.508Z,16.10
2018-03-14T18:44:21.964Z,16.90
2018-03-14T18:46:49.417Z,15.63
2018-03-14T18:49:16.891Z,16.10
2018-03-14T18:51:44.339Z,11.37
2018-03-14T18:54:11.792Z,13.63
2018-03-14T18:56:39.246Z,14.80
2018-03-14T18:59:06.693Z,12.60
2018-03-14T19:01:34.161Z,15.40
2018-03-14T19:04:01.617Z,17.03
2018-03-14T19:06:29.099Z,17.23
2018-03-14T19:08:56.569Z,11.50
2018-03-14T19:11:24.796Z,19.40
2018-03-14T19:13:52.245Z,12.33
2018-03-14T19:16:19.774Z,16.58
2018-03-14T19:18:47.187Z,12.20
2018-03-14T19:21:16.169Z,15.60
2018-03-14T19:23:43.628Z,14.10
2018-03-14T19:26:11.107Z,12.00
2018-03-14T19:28:38.564Z,14.33
2018-03-14T19:31:06.039Z,13.80
2018-03-14T19:33:34.267Z,11.43
2018-03-14T19:36:01.737Z,12.43
2018-03-14T19:38:29.206Z,12.70
2018-03-14T19:40:56.667Z,14.87
2018-03-14T19:43:24.132Z,11.53
2018-03-14T19:45:51.603Z,12.30
2018-03-14T19:48:19.867Z,13.20
2018-03-14T19:50:48.107Z,11.73
2018-03-14T19:53:15.564Z,12.37
2018-03-14T19:55:43.032Z,12.67
2018-03-14T19:58:10.491Z,17.37
2018-03-14T20:00:37.977Z,13.20
2018-03-14T20:03:06.224Z,13.07
2018-03-14T20:05:33.707Z,14.27
2018-03-14T20:08:01.152Z,11.57
2018-03-14T20:10:28.633Z,13.47
2018-03-14T20:12:56.866Z,16.47
2018-03-14T20:15:24.319Z,15.13
2018-03-14T20:17:51.812Z,13.43
2018-03-14T20:20:20.048Z,15.70
2018-03-14T20:22:47.528Z,15.70
2018-03-14T20:25:14.992Z,17.03
2018-03-14T20:27:42.471Z,12.37
2018-03-14T20:30:10.699Z,23.17
2018-03-14T20:32:38.175Z,16.43
2018-03-14T20:35:05.639Z,18.33
2018-03-14T20:37:33.124Z,34.73
2018-03-14T20:40:01.363Z,21.43
2018-03-14T20:42:28.840Z,23.93
2018-03-14T20:44:56.309Z,24.40
2018-03-14T20:47:24.564Z,18.63
2018-03-14T20:49:52.640Z,16.53
2018-03-14T20:52:20.908Z,18.63
2018-03-14T20:54:48.368Z,30.83
2018-03-14T20:57:15.928Z,18.40
2018-03-14T20:59:43.391Z,22.63
2018-03-14T21:02:10.883Z,18.20
2018-03-14T21:04:38.452Z,18.90
2018-03-14T21:07:05.932Z,28.57
2018-03-14T21:09:33.435Z,22.20
2018-03-14T21:12:00.890Z,20.50
2018-03-14T21:14:29.130Z,15.57
2018-03-14T21:16:56.619Z,17.77
2018-03-14T21:19:24.847Z,15.83
2018-03-14T21:21:52.315Z,16.83
2018-03-14T21:24:19.787Z,18.80
2018-03-14T21:26:47.259Z,19.90
2018-03-14T21:29:15.507Z,8.63
2018-03-14T21:31:42.962Z,9.50
2018-03-14T21:34:10.443Z,10.20
2018-03-14T21:36:37.912Z,12.70
2018-03-14T21:39:07.809Z,9.90
2018-03-14T21:41:35.269Z,12.63
2018-03-14T21:44:02.743Z,13.40
2018-03-14T21:46:30.189Z,8.43
2018-03-14T21:48:57.649Z,13.03
2018-03-14T21:51:25.156Z,10.50
2018-03-14T21:53:54.061Z,12.00
2018-03-14T21:56:21.540Z,15.47
2018-03-14T21:58:48.980Z,12.10
2018-03-14T22:01:17.772Z,12.23
2018-03-14T22:03:45.229Z,15.90
2018-03-14T22:06:12.756Z,8.33
2018-03-14T22:08:40.120Z,8.80
2018-03-14T22:11:07.584Z,10.87
2018-03-14T22:13:35.868Z,13.13
2018-03-14T22:16:04.056Z,8.67
2018-03-14T22:18:31.507Z,10.80
2018-03-14T22:20:58.944Z,9.27
2018-03-14T22:23:26.396Z,9.00
2018-03-14T22:25:53.849Z,10.77
2018-03-14T22:28:21.291Z,11.63
2018-03-14T22:30:48.767Z,14.43
2018-03-14T22:33:16.208Z,14.70
2018-03-14T22:35:43.673Z,17.67
2018-03-14T22:38:11.118Z,16.33
2018-03-14T22:40:39.340Z,15.67
2018-03-14T22:43:06.804Z,11.23
2018-03-14T22:45:34.260Z,13.93
2018-03-14T22:48:01.718Z,12.70
2018-03-14T22:50:29.168Z,11.13
2018-03-14T22:52:56.638Z,11.00
2018-03-14T22:55:24.094Z,11.97
2018-03-14T22:57:51.553Z,10.20
2018-03-14T23:00:19.008Z,10.70
2018-03-14T23:02:46.890Z,10.80
2018-03-14T23:05:14.353Z,10.60
2018-03-14T23:07:41.804Z,10.20
2018-03-14T23:10:09.252Z,8.83
2018-03-14T23:12:36.702Z,10.30
2018-03-14T23:15:04.150Z,8.50
2018-03-14T23:17:31.609Z,10.13
2018-03-14T23:19:59.062Z,9.13
2018-03-14T23:22:26.519Z,10.50
2018-03-14T23:24:53.969Z,8.77
2018-03-14T23:27:21.409Z,9.50
2018-03-14T23:29:48.852Z,8.67
2018-03-14T23:32:16.312Z,10.57
2018-03-14T23:34:44.536Z,11.57
2018-03-14T23:37:11.993Z,11.43
2018-03-14T23:39:39.444Z,10.77
2018-03-14T23:42:06.920Z,8.40
2018-03-14T23:44:34.372Z,10.63
2018-03-14T23:47:01.852Z,9.63
2018-03-14T23:49:30.775Z,8.77
2018-03-14T23:51:59.070Z,8.30
2018-03-14T23:54:26.518Z,16.10
2018-03-14T23:56:53.981Z,10.50
2018-03-14T23:59:21.424Z,9.73
